首页
METAR-TAF:

METAR-TAF

机场 :

卡爾斯, 土耳其

纬度: 40-36N, 经度: 043-05E, 海拔: 1775米

当前天气观测

该预报发布于30分钟前的14:12 UTC
风速2节,风向多变
温度 11°C
湿度 76%
气压 1016 hPa
能见度10公里或以上
少量云层高于2000英尺, 积雨云.
多云层高于3500英尺
雷暴, 小雨

METAR: LTCF 251412Z VRB02KT 9999 -TSRA FEW020CB BKN035 11/07 Q1016 RMK RWY24 VRB01KT

时间: 17:42 (14:42 UTC)

预报

该预报发布于1小时和2分钟前的13:40 UTC
预报有效从25日的 15点(UTC)到 25日的 24点(UTC)
风速2节,风向多变
能见度10公里或以上
多云层高于3500英尺
短暂存在
从 25日的 15点(UTC)到 25日的 17点(UTC)
风速12节,风向西
少量云层高于2000英尺, 积雨云.
多云层高于3500英尺
雷暴, 小雨
成为
从 25日的 17点(UTC)到 25日的 19点(UTC)
散云层高于3500英尺
成为
从 25日的 20点(UTC)到 25日的 22点(UTC)
能见度10公里或以上
1500米以下无云,无积雨云

TAF: LTCF 251340Z 2515/2524 VRB02KT 9999 BKN035 TEMPO 2515/2517 27012KT -TSRA FEW020CB BKN035 BECMG 2517/2519 SCT035 BECMG 2520/2522 CAVOK

超过4000个机场的气象观测和天气预报(METAR&TAF报告)。

可查询的气象台以黄色和红色小点在地图上表示。

将鼠标移到小点上方,可查看气象台名称。

然后点击查看天气观测和预报。

如需切换地图:点击带黑十字的绿色按钮放大地图;点击带横线的绿色按钮缩小地图;或者点击绿色箭头查看邻近地区的地图。


METAR-TAF: